createdAt,value
2019-01-11T00:00:10.967Z,53.4
2019-01-11T00:01:01.059Z,53.4
2019-01-11T00:01:50.519Z,53.4
2019-01-11T00:02:40.867Z,53.4
2019-01-11T00:03:30.648Z,53.4
2019-01-11T00:04:21.253Z,53.4
2019-01-11T00:05:11.076Z,53.3
2019-01-11T00:06:00.808Z,53.3
2019-01-11T00:06:51.147Z,53.3
2019-01-11T00:07:41.203Z,53.3
2019-01-11T00:08:31.265Z,53.3
2019-01-11T00:09:21.593Z,53.3
2019-01-11T00:10:11.098Z,53.3
2019-01-11T00:11:01.488Z,53.3
2019-01-11T00:11:51.758Z,53.3
2019-01-11T00:12:41.256Z,53.3
2019-01-11T00:13:31.891Z,53.3
2019-01-11T00:14:21.935Z,53.3
2019-01-11T00:15:11.440Z,53.2
2019-01-11T00:16:01.795Z,53.2
2019-01-11T00:34:24.972Z,53
2019-01-11T00:35:15.464Z,53.1
2019-01-11T00:36:05.536Z,53
2019-01-11T00:36:55.359Z,53
2019-01-11T00:37:44.831Z,53
2019-01-11T00:38:35.411Z,53
2019-01-11T00:39:25.457Z,53
2019-01-11T00:40:15.253Z,52.9
2019-01-11T00:41:05.866Z,52.9
2019-01-11T00:41:55.401Z,52.9
2019-01-11T00:42:45.413Z,52.9
2019-01-11T00:43:35.462Z,52.9
2019-01-11T00:44:25.541Z,52.9
2019-01-11T00:45:15.571Z,52.9
2019-01-11T00:46:05.646Z,52.9
2019-01-11T00:46:55.711Z,52.9
2019-01-11T00:47:45.751Z,52.9
2019-01-11T00:48:36.089Z,52.9
2019-01-11T00:49:25.873Z,52.8
2019-01-11T00:50:16.198Z,52.9
2019-01-11T00:51:05.982Z,52.8
2019-01-11T00:51:55.756Z,52.8
2019-01-11T00:52:46.368Z,52.8
2019-01-11T00:53:36.140Z,52.8
2019-01-11T00:54:25.937Z,52.8
2019-01-11T00:55:16.550Z,52.8
2019-01-11T00:56:06.622Z,52.8
2019-01-11T00:56:56.155Z,52.8
2019-01-11T00:57:46.421Z,52.8
2019-01-11T00:58:36.775Z,52.8
2019-01-11T00:59:26.807Z,52.8
2019-01-11T01:00:16.334Z,52.8
2019-01-11T01:01:06.387Z,52.8
2019-01-11T01:01:56.175Z,52.8
2019-01-11T01:02:46.828Z,52.7
2019-01-11T01:03:37.422Z,52.7
2019-01-11T01:04:27.160Z,52.7
2019-01-11T01:05:16.675Z,52.7
2019-01-11T01:06:07.620Z,52.7
2019-01-11T01:06:57.382Z,52.6
2019-01-11T01:07:47.162Z,52.6
2019-01-11T01:08:37.161Z,52.6
2019-01-11T01:09:27.492Z,52.6
2019-01-11T01:10:17.602Z,52.6
2019-01-11T01:11:07.350Z,52.6
2019-01-11T01:11:58.047Z,52.6
2019-01-11T01:12:46.902Z,52.6
2019-01-11T01:13:37.506Z,52.6
2019-01-11T01:14:27.904Z,52.6
2019-01-11T01:15:17.967Z,52.6
2019-01-11T01:16:07.941Z,52.6
2019-01-11T01:16:57.999Z,52.5
2019-01-11T01:17:48.061Z,52.5
2019-01-11T01:18:38.142Z,52.5
2019-01-11T01:19:27.894Z,52.5
2019-01-11T01:20:18.256Z,52.5
2019-01-11T01:21:08.331Z,52.5
2019-01-11T01:21:58.681Z,52.5
2019-01-11T01:22:48.116Z,52.5
2019-01-11T01:23:38.476Z,52.4
2019-01-11T01:24:28.262Z,52.4
2019-01-11T01:25:18.581Z,52.4
2019-01-11T01:26:08.631Z,52.4
2019-01-11T01:26:58.418Z,52.4
2019-01-11T01:27:48.750Z,52.4
2019-01-11T01:35:18.188Z,52.3
2019-01-11T01:36:08.485Z,52.3
2019-01-11T01:36:59.651Z,52.3
2019-01-11T01:37:49.693Z,52.3
2019-01-11T01:38:39.483Z,52.3
2019-01-11T01:39:29.246Z,52.3
2019-01-11T01:40:19.590Z,52.3
2019-01-11T01:41:09.142Z,52.3
2019-01-11T01:41:59.705Z,52.3
2019-01-11T01:42:50.037Z,52.3
2019-01-11T01:43:40.090Z,52.3
2019-01-11T01:44:29.614Z,52.3
2019-01-11T01:45:19.434Z,52.3
2019-01-11T01:46:10.002Z,52.2
2019-01-11T01:47:00.317Z,52.2
2019-01-11T01:47:49.822Z,52.2
2019-01-11T01:48:40.173Z,52.2
2019-01-11T01:49:30.149Z,52.2
2019-01-11T01:50:20.036Z,52.2
2019-01-11T01:51:10.324Z,52.1
2019-01-11T01:52:00.668Z,52.1
2019-01-11T01:52:49.936Z,52.1
2019-01-11T01:53:40.506Z,52.1
2019-01-11T01:54:30.571Z,52.1
2019-01-11T01:55:20.617Z,52.1
2019-01-11T01:56:10.412Z,52.1
2019-01-11T01:57:00.729Z,52.1
2019-01-11T01:57:51.056Z,52.1
2019-01-11T01:58:41.096Z,52.1
2019-01-11T01:59:30.615Z,52.1
2019-01-11T02:00:20.209Z,52.1
2019-01-11T02:01:10.254Z,52.1
2019-01-11T02:02:00.584Z,52
2019-01-11T02:02:50.349Z,52
2019-01-11T02:03:40.731Z,52
2019-01-11T02:04:30.797Z,52
2019-01-11T02:05:20.551Z,52
2019-01-11T02:06:11.068Z,52
2019-01-11T02:12:01.194Z,51.9
2019-01-11T02:12:52.095Z,51.9
2019-01-11T02:13:41.578Z,51.9
2019-01-11T02:14:31.356Z,51.9
2019-01-11T02:15:21.675Z,51.9
2019-01-11T02:16:11.230Z,51.9
2019-01-11T02:17:01.570Z,51.9
2019-01-11T02:17:51.851Z,51.8
2019-01-11T02:18:42.471Z,51.8
2019-01-11T02:19:36.872Z,51.8
2019-01-11T02:20:22.065Z,51.8
2019-01-11T02:21:11.805Z,51.8
2019-01-11T02:22:02.157Z,51.8
2019-01-11T02:22:52.487Z,51.8
2019-01-11T02:23:42.802Z,51.8
2019-01-11T02:24:32.868Z,51.8
2019-01-11T02:25:22.087Z,51.8
2019-01-11T02:26:12.205Z,51.8
2019-01-11T02:27:02.287Z,51.8
2019-01-11T02:27:52.091Z,51.8
2019-01-11T02:28:42.594Z,51.7
2019-01-11T02:29:32.107Z,51.7
2019-01-11T02:30:22.503Z,51.7
2019-01-11T02:31:13.097Z,51.7
2019-01-11T02:32:03.382Z,51.7
2019-01-11T02:32:56.544Z,51.7
2019-01-11T02:33:42.939Z,51.6
2019-01-11T02:34:32.749Z,51.6
2019-01-11T02:35:23.424Z,51.6
2019-01-11T02:36:12.547Z,51.6
2019-01-11T02:37:03.796Z,51.6
2019-01-11T02:37:53.216Z,51.6
2019-01-11T02:38:43.843Z,51.6
2019-01-11T02:39:33.622Z,51.6
2019-01-11T02:40:24.052Z,51.6
2019-01-11T02:41:13.446Z,51.6
2019-01-11T02:42:04.138Z,51.6
2019-01-11T02:42:52.759Z,51.6
2019-01-11T02:43:43.626Z,51.6
2019-01-11T02:44:34.996Z,51.6
2019-01-11T02:45:23.746Z,51.6
2019-01-11T02:46:13.524Z,51.5
2019-01-11T02:47:04.119Z,51.4
2019-01-11T02:47:54.164Z,51.3
2019-01-11T02:48:44.498Z,51.3
2019-01-11T02:49:41.501Z,51.3
2019-01-11T02:50:24.720Z,51.3
2019-01-11T02:51:14.205Z,51.4
2019-01-11T02:52:04.996Z,51.6
2019-01-11T02:52:54.581Z,51.8
2019-01-11T02:53:44.569Z,51.9
2019-01-11T02:54:34.670Z,52.1
2019-01-11T02:55:25.003Z,52.3
2019-01-11T02:56:14.464Z,52.5
2019-01-11T02:57:04.282Z,52.7
2019-01-11T02:57:54.836Z,52.9
2019-01-11T02:58:44.930Z,53.1
2019-01-11T02:59:35.006Z,53.4
2019-01-11T03:00:24.492Z,53.6
2019-01-11T03:01:14.831Z,53.8
2019-01-11T03:02:04.931Z,54.1
2019-01-11T03:02:55.200Z,54.3
2019-01-11T03:03:44.731Z,54.6
2019-01-11T03:04:35.030Z,54.8
2019-01-11T03:05:26.609Z,55
2019-01-11T03:06:14.862Z,55.3
2019-01-11T03:07:05.208Z,55.4
2019-01-11T03:07:55.002Z,55.7
2019-01-11T03:08:45.579Z,55.9
2019-01-11T03:09:35.100Z,56.1
2019-01-11T03:10:24.871Z,56.4
2019-01-11T03:11:16.021Z,56.6
2019-01-11T03:12:05.561Z,56.8
2019-01-11T03:12:55.582Z,57.1
2019-01-11T03:13:45.975Z,57.3
2019-01-11T03:14:35.752Z,57.5
2019-01-11T03:16:16.107Z,58
2019-01-11T03:17:05.867Z,58.3
2019-01-11T03:17:55.923Z,58.4
2019-01-11T03:18:46.328Z,58.7
2019-01-11T03:19:35.534Z,58.9
2019-01-11T03:20:26.158Z,59.2
2019-01-11T03:21:16.724Z,59.4
2019-01-11T03:22:05.946Z,59.7
2019-01-11T03:22:56.832Z,59.9
2019-01-11T03:23:46.924Z,60.1
2019-01-11T03:24:36.688Z,60.3
2019-01-11T03:25:26.173Z,60.4
2019-01-11T03:26:16.783Z,60.5
2019-01-11T03:27:06.848Z,60.8
2019-01-11T03:27:57.181Z,60.9
2019-01-11T03:28:46.678Z,61.1
2019-01-11T03:29:37.595Z,61.3
2019-01-11T03:30:26.876Z,61.3
2019-01-11T03:31:17.471Z,61.5
2019-01-11T03:32:06.986Z,61.7
2019-01-11T03:32:56.803Z,61.9
2019-01-11T03:33:47.000Z,61.9
2019-01-11T03:34:37.632Z,62
2019-01-11T03:35:27.240Z,62.3
2019-01-11T03:36:17.488Z,62.4
2019-01-11T03:37:07.551Z,62.6
2019-01-11T03:37:57.028Z,62.8
2019-01-11T03:38:47.667Z,63.1
2019-01-11T03:39:37.425Z,63.3
2019-01-11T03:40:27.783Z,63.5
2019-01-11T03:41:17.230Z,63.8
2019-01-11T03:42:07.875Z,64
2019-01-11T03:42:57.935Z,64.3
2019-01-11T03:43:47.712Z,64.3
2019-01-11T03:44:38.033Z,64.4
2019-01-11T03:45:27.291Z,64.4
2019-01-11T03:46:18.164Z,64.5
2019-01-11T03:47:08.192Z,64.6
2019-01-11T03:47:58.532Z,64.6
2019-01-11T03:48:48.385Z,64.6
2019-01-11T03:49:38.641Z,64.7
2019-01-11T03:50:28.171Z,64.7
2019-01-11T03:51:18.222Z,64.7
2019-01-11T03:52:08.254Z,64.7
2019-01-11T03:52:58.607Z,64.7
2019-01-11T03:53:48.651Z,64.6
2019-01-11T03:54:37.914Z,64.6
2019-01-11T03:55:28.750Z,64.7
2019-01-11T03:56:19.097Z,64.7
2019-01-11T03:57:08.588Z,64.6
2019-01-11T03:57:58.651Z,64.6
2019-01-11T03:58:48.976Z,64.6
2019-01-11T03:59:38.802Z,64.6
2019-01-11T04:00:29.096Z,64.6
2019-01-11T04:01:18.079Z,64.6
2019-01-11T04:02:08.121Z,64.6
2019-01-11T04:02:59.266Z,64.6
2019-01-11T04:03:48.750Z,64.6
2019-01-11T04:04:38.563Z,64.6
2019-01-11T04:05:28.912Z,64.6
2019-01-11T04:06:19.770Z,64.6
2019-01-11T04:07:08.991Z,64.5
2019-01-11T04:07:59.871Z,64.5
2019-01-11T04:08:49.411Z,64.5
2019-01-11T04:09:39.186Z,64.5
2019-01-11T04:10:29.285Z,64.5
2019-01-11T04:11:20.183Z,64.5
2019-01-11T04:12:09.621Z,64.5
2019-01-11T04:12:59.943Z,64.5
2019-01-11T04:13:49.450Z,64.4
2019-01-11T04:14:39.806Z,64.4
2019-01-11T04:15:30.140Z,64.4
2019-01-11T04:16:20.100Z,64.4
2019-01-11T04:17:10.235Z,64.4
2019-01-11T04:17:59.995Z,64.4
2019-01-11T04:18:50.325Z,64.4
2019-01-11T04:19:40.386Z,64.4
2019-01-11T04:20:30.470Z,64.4
2019-01-11T04:21:20.253Z,64.4
2019-01-11T04:22:10.297Z,64.4
2019-01-11T04:23:00.327Z,64.3
2019-01-11T04:23:50.509Z,64.3
2019-01-11T04:24:41.058Z,64.3
2019-01-11T04:25:31.147Z,64.3
2019-01-11T04:26:20.307Z,64.3
2019-01-11T04:27:10.900Z,64.3
2019-01-11T04:28:00.700Z,64.3
2019-01-11T04:28:50.830Z,64.3
2019-01-11T04:29:40.806Z,64.3
2019-01-11T04:30:30.908Z,64.3
2019-01-11T04:31:21.153Z,64.3
2019-01-11T04:32:11.252Z,64.3
2019-01-11T04:33:01.322Z,64.2
2019-01-11T04:33:51.387Z,64.3
2019-01-11T04:34:41.421Z,64.3
2019-01-11T04:35:31.766Z,64.2
2019-01-11T04:36:21.265Z,64.2
2019-01-11T04:37:11.597Z,64.2
2019-01-11T04:38:01.636Z,64.2
2019-01-11T04:38:51.411Z,64.2
2019-01-11T04:39:41.834Z,64.1
2019-01-11T04:40:37.655Z,64.1
2019-01-11T04:41:21.872Z,64.1
2019-01-11T04:42:11.937Z,64.1
2019-01-11T04:43:01.971Z,64.1
2019-01-11T04:43:51.794Z,64.1
2019-01-11T04:44:42.386Z,64.1
2019-01-11T04:45:32.291Z,64.1
2019-01-11T04:46:21.938Z,64.1
2019-01-11T05:03:42.761Z,63.9
2019-01-11T05:04:47.145Z,63.9
2019-01-11T05:05:24.323Z,63.9
2019-01-11T05:06:27.202Z,63.9
2019-01-11T05:07:55.325Z,63.9
2019-01-11T05:08:29.197Z,63.8
2019-01-11T05:09:41.132Z,63.8
2019-01-11T05:10:31.194Z,63.8
2019-01-11T05:11:49.929Z,63.8
2019-01-11T09:18:10.116Z,60.9
2019-01-11T09:18:59.848Z,60.9
2019-01-11T09:19:50.383Z,60.9
2019-01-11T09:20:40.978Z,60.9
2019-01-11T09:21:31.079Z,60.9
2019-01-11T09:22:21.073Z,60.9
2019-01-11T09:23:10.328Z,60.9
2019-01-11T09:24:00.658Z,60.9
2019-01-11T09:24:51.005Z,60.9
2019-01-11T09:25:40.781Z,60.9
2019-01-11T09:26:30.528Z,60.9
2019-01-11T09:27:20.310Z,60.8
2019-01-11T09:28:11.483Z,60.8
2019-01-11T09:29:01.529Z,60.8
2019-01-11T09:29:51.295Z,60.8
2019-01-11T09:30:41.360Z,60.8
2019-01-11T09:31:31.408Z,60.8
2019-01-11T09:32:21.486Z,60.8
2019-01-11T09:33:11.531Z,60.8
2019-01-11T09:34:01.855Z,60.8
2019-01-11T09:34:51.390Z,60.8
2019-01-11T09:35:41.697Z,60.8
2019-01-11T09:36:31.282Z,60.8
2019-01-11T09:37:21.527Z,60.7
2019-01-11T09:38:11.745Z,60.7
2019-01-11T09:39:01.937Z,60.7
2019-01-11T09:39:52.297Z,60.7
2019-01-11T09:40:41.767Z,60.7
2019-01-11T09:41:31.807Z,60.7
2019-01-11T09:42:22.197Z,60.7
2019-01-11T09:43:11.947Z,60.7
2019-01-11T09:44:01.997Z,60.6
2019-01-11T09:44:52.326Z,60.6
2019-01-11T09:45:42.097Z,60.6
2019-01-11T09:46:32.716Z,60.6
2019-01-11T09:47:22.745Z,60.6
2019-01-11T09:48:12.872Z,60.6
2019-01-11T09:49:02.604Z,60.6
2019-01-11T09:49:52.958Z,60.6
2019-01-11T09:50:42.491Z,60.6
2019-01-11T09:51:32.211Z,60.6
2019-01-11T09:52:22.824Z,60.6
2019-01-11T09:53:12.337Z,60.6
2019-01-11T09:54:02.944Z,60.5
2019-01-11T09:54:53.266Z,60.5
2019-01-11T09:55:42.486Z,60.5
2019-01-11T09:56:33.151Z,60.5
2019-01-11T09:57:23.433Z,60.5
2019-01-11T09:58:13.514Z,60.4
2019-01-11T09:59:03.119Z,60.4
2019-01-11T09:59:53.026Z,60.4
2019-01-11T10:00:44.014Z,60.4
2019-01-11T10:01:33.456Z,60.4
2019-01-11T10:02:23.408Z,60.4
2019-01-11T10:03:13.879Z,60.4
2019-01-11T10:04:03.424Z,60.4
2019-01-11T10:04:53.475Z,60.4
2019-01-11T10:05:43.723Z,60.4
2019-01-11T10:06:33.305Z,60.4
2019-01-11T10:07:23.838Z,60.4
2019-01-11T10:08:14.163Z,60.4
2019-01-11T10:09:04.225Z,60.3
2019-01-11T10:09:54.015Z,60.3
2019-01-11T10:10:43.520Z,60.3
2019-01-11T10:11:34.123Z,60.3
2019-01-11T10:12:23.901Z,60.3
2019-01-11T10:13:13.672Z,60.3
2019-01-11T10:14:04.322Z,60.3
2019-01-11T10:14:54.355Z,60.3
2019-01-11T10:15:44.671Z,60.3
2019-01-11T10:16:34.737Z,60.3
2019-01-11T10:17:24.240Z,60.3
2019-01-11T10:18:14.838Z,60.2
2019-01-11T10:19:04.637Z,60.2
2019-01-11T10:19:54.720Z,60.2
2019-01-11T10:20:44.189Z,60.2
2019-01-11T10:21:34.505Z,60.2
2019-01-11T10:22:24.577Z,60.1
2019-01-11T10:23:15.177Z,60.2
2019-01-11T10:24:04.967Z,60.1
2019-01-11T10:24:54.744Z,60.1
2019-01-11T10:25:44.509Z,60.1
2019-01-11T10:26:35.432Z,60.1
2019-01-11T10:27:24.909Z,60.1
2019-01-11T10:28:15.229Z,60.1
2019-01-11T10:29:05.020Z,60.1
2019-01-11T10:29:55.074Z,60.1
2019-01-11T10:30:45.674Z,60.1
2019-01-11T10:31:35.184Z,60.1
2019-01-11T10:32:24.972Z,60.1
2019-01-11T10:33:15.294Z,60.1
2019-01-11T10:34:05.899Z,60
2019-01-11T10:34:55.671Z,60
2019-01-11T10:35:45.754Z,60
2019-01-11T10:36:35.516Z,60
2019-01-11T10:37:25.846Z,60
2019-01-11T10:38:15.926Z,60
2019-01-11T10:39:05.991Z,59.9
2019-01-11T10:39:56.293Z,59.9
2019-01-11T10:40:46.107Z,59.9
2019-01-11T10:41:36.125Z,59.9
2019-01-11T10:42:26.236Z,59.9
2019-01-11T10:43:16.521Z,59.9
2019-01-11T10:44:06.310Z,59.9
2019-01-11T10:44:56.345Z,59.9
2019-01-11T10:45:46.165Z,59.9
2019-01-11T10:46:36.466Z,59.9
2019-01-11T10:47:26.793Z,59.9
2019-01-11T10:48:16.603Z,59.9
2019-01-11T10:49:06.643Z,59.8
2019-01-11T10:49:56.414Z,59.8
2019-01-11T10:50:46.823Z,59.8
2019-01-11T10:51:37.094Z,59.8
2019-01-11T10:52:26.855Z,59.8
2019-01-11T10:53:16.656Z,59.8
2019-01-11T10:54:06.416Z,59.8
2019-01-11T10:54:56.750Z,59.8
2019-01-11T10:55:46.525Z,59.8
2019-01-11T10:56:37.128Z,59.8
2019-01-11T10:57:27.192Z,59.7
2019-01-11T10:58:17.264Z,59.7
2019-01-11T10:59:07.590Z,59.7
2019-01-11T10:59:57.354Z,59.7
2019-01-11T11:00:47.563Z,59.7
2019-01-11T11:01:37.742Z,59.7
2019-01-11T11:02:27.247Z,59.6
2019-01-11T11:03:17.607Z,59.7
2019-01-11T11:04:07.379Z,59.6
2019-01-11T11:04:56.860Z,59.6
2019-01-11T11:05:47.811Z,59.6
2019-01-11T11:06:37.549Z,59.6
2019-01-11T11:07:27.921Z,59.6
2019-01-11T11:08:18.194Z,59.6
2019-01-11T11:09:08.279Z,59.6
2019-01-11T11:09:57.762Z,59.6
2019-01-11T11:10:47.809Z,59.6
2019-01-11T11:11:37.894Z,59.6
2019-01-11T11:12:28.474Z,59.6
2019-01-11T11:13:18.254Z,59.6
2019-01-11T11:14:08.101Z,59.5
2019-01-11T11:14:57.811Z,59.5
2019-01-11T11:15:48.709Z,59.5
2019-01-11T11:16:38.518Z,59.5
2019-01-11T11:17:28.261Z,59.5
2019-01-11T11:18:18.593Z,59.4
2019-01-11T11:19:08.353Z,59.4
2019-01-11T11:19:57.946Z,59.4
2019-01-11T11:20:48.486Z,59.4
2019-01-11T11:21:38.829Z,59.4
2019-01-11T11:22:28.340Z,59.4
2019-01-11T11:23:18.423Z,59.4
2019-01-11T11:24:08.718Z,59.4
2019-01-11T11:24:59.051Z,59.4
2019-01-11T11:25:48.828Z,59.4
2019-01-11T11:26:39.488Z,59.4
2019-01-11T11:27:28.920Z,59.3
2019-01-11T11:28:18.720Z,59.3
2019-01-11T11:29:10.791Z,59.3
2019-01-11T11:29:59.385Z,59.3
2019-01-11T11:30:55.028Z,59.3
2019-01-11T11:31:39.775Z,59.3
2019-01-11T11:32:29.603Z,59.3
2019-01-11T11:33:19.040Z,59.3
2019-01-11T11:34:09.932Z,59.3
2019-01-11T11:34:59.700Z,59.3
2019-01-11T11:35:49.490Z,59.3
2019-01-11T11:36:39.357Z,59.3
2019-01-11T11:37:29.890Z,59.2
2019-01-11T11:38:19.922Z,59.2
2019-01-11T11:39:09.990Z,59.2
2019-01-11T11:39:59.339Z,59.2
2019-01-11T11:40:49.848Z,59.2
2019-01-11T11:41:39.412Z,59.2
2019-01-11T11:42:29.477Z,59.1
2019-01-11T11:43:19.989Z,59.1
2019-01-11T11:44:10.331Z,59.1
2019-01-11T11:45:00.155Z,59.1
2019-01-11T11:45:50.185Z,59.1
2019-01-11T11:46:40.018Z,59.1
2019-01-11T11:47:29.854Z,59.1
2019-01-11T11:48:20.421Z,59.1
2019-01-11T11:49:10.674Z,59.1
2019-01-11T11:50:00.496Z,59.1
2019-01-11T11:50:50.792Z,59.1
2019-01-11T11:51:45.277Z,59
2019-01-11T11:52:30.914Z,59.1
2019-01-11T11:53:20.964Z,59
2019-01-11T11:54:10.466Z,59
2019-01-11T11:55:00.853Z,59
2019-01-11T11:55:50.364Z,59
2019-01-11T11:56:41.448Z,59
2019-01-11T11:57:31.720Z,58.9
2019-01-11T11:58:21.619Z,58.9
2019-01-11T11:59:11.391Z,58.9
2019-01-11T12:00:01.170Z,58.9
2019-01-11T12:00:51.240Z,58.9
2019-01-11T12:01:41.516Z,58.9
2019-01-11T12:02:31.622Z,58.9
2019-01-11T12:03:21.632Z,58.9
2019-01-11T12:04:11.128Z,58.9
2019-01-11T12:05:01.452Z,58.9
2019-01-11T12:05:51.811Z,58.8
2019-01-11T12:06:41.590Z,58.8
2019-01-11T12:07:31.618Z,58.8
2019-01-11T12:08:21.956Z,58.8
2019-01-11T12:09:12.300Z,58.8
2019-01-11T12:10:02.078Z,58.8
2019-01-11T12:10:52.170Z,58.8
2019-01-11T12:11:41.631Z,58.8
2019-01-11T12:12:33.646Z,58.8
2019-01-11T12:13:22.286Z,58.8
2019-01-11T12:14:12.085Z,58.8
2019-01-11T12:15:01.877Z,58.8
2019-01-11T12:15:52.455Z,58.8
2019-01-11T12:16:42.786Z,58.7
2019-01-11T12:17:32.810Z,58.7
2019-01-11T12:18:22.913Z,58.7
2019-01-11T12:19:12.162Z,58.7
2019-01-11T12:20:02.829Z,58.7
2019-01-11T12:20:52.264Z,58.7
2019-01-11T12:21:48.812Z,58.7
2019-01-11T12:22:32.909Z,58.6
2019-01-11T12:23:22.972Z,58.6
2019-01-11T12:24:13.298Z,58.6
2019-01-11T12:25:02.290Z,58.6
2019-01-11T12:25:52.567Z,58.6
2019-01-11T12:31:42.188Z,58.5
2019-01-11T12:32:33.061Z,58.5
2019-01-11T12:33:23.462Z,58.5
2019-01-11T12:34:13.214Z,58.5
2019-01-11T12:35:03.286Z,58.5
2019-01-11T12:35:53.374Z,58.5
2019-01-11T12:36:43.857Z,58.4
2019-01-11T12:37:33.173Z,58.4
2019-01-11T12:38:23.566Z,58.4
2019-01-11T12:39:14.340Z,58.4
2019-01-11T12:40:04.160Z,58.4
2019-01-11T12:40:53.867Z,58.4
2019-01-11T12:41:44.487Z,58.4
2019-01-11T12:42:33.962Z,58.4
2019-01-11T12:43:24.304Z,58.4
2019-01-11T12:44:14.650Z,58.4
2019-01-11T12:45:04.182Z,58.4
2019-01-11T12:45:54.749Z,58.3
2019-01-11T12:46:44.254Z,58.3
2019-01-11T12:47:34.595Z,58.3
2019-01-11T12:48:24.390Z,58.3
2019-01-11T12:49:15.031Z,58.3
2019-01-11T12:50:05.069Z,58.3
2019-01-11T12:50:53.991Z,58.3
2019-01-11T12:51:44.603Z,58.3
2019-01-11T12:52:34.658Z,58.3
2019-01-11T12:53:25.305Z,58.3
2019-01-11T12:54:15.022Z,58.3
2019-01-11T12:55:04.917Z,58.3
2019-01-11T12:55:54.943Z,58.2
2019-01-11T12:56:45.211Z,58.2
2019-01-11T12:57:35.000Z,58.2
2019-01-11T12:58:25.045Z,58.2
2019-01-11T12:59:15.005Z,58.2
2019-01-11T13:00:05.447Z,58.2
2019-01-11T13:00:55.477Z,58.1
2019-01-11T13:01:45.078Z,58.1
2019-01-11T13:02:35.407Z,58.1
2019-01-11T13:03:25.697Z,58.1
2019-01-11T13:04:15.737Z,58.1
2019-01-11T13:05:04.807Z,58.1
2019-01-11T13:05:56.117Z,58.1
2019-01-11T13:06:45.612Z,58.1
2019-01-11T13:07:35.442Z,58.1
2019-01-11T13:08:25.234Z,58.1
2019-01-11T13:09:15.810Z,58.1
2019-01-11T13:10:05.446Z,58
2019-01-11T13:10:55.684Z,58
2019-01-11T13:11:46.012Z,58
2019-01-11T13:12:36.114Z,58
2019-01-11T13:13:26.134Z,58
2019-01-11T13:14:15.639Z,58
2019-01-11T13:15:05.946Z,58
2019-01-11T13:15:56.014Z,57.9
2019-01-11T13:16:45.611Z,57.9
2019-01-11T13:17:35.701Z,57.9
2019-01-11T13:18:25.711Z,57.9
2019-01-11T13:19:15.764Z,57.9
2019-01-11T13:20:05.837Z,57.9
2019-01-11T13:20:55.894Z,57.9
2019-01-11T13:21:46.249Z,57.9
2019-01-11T13:22:36.728Z,57.9
2019-01-11T13:23:26.518Z,57.9
2019-01-11T13:24:16.585Z,57.9
2019-01-11T13:25:06.656Z,57.8
2019-01-11T13:25:56.988Z,57.8
2019-01-11T13:26:47.036Z,57.8
2019-01-11T13:27:36.795Z,57.8
2019-01-11T13:28:26.303Z,57.8
2019-01-11T13:29:16.488Z,57.8
2019-01-11T13:30:57.021Z,57.8
2019-01-11T13:35:07.571Z,57.7
2019-01-11T13:35:56.815Z,57.7
2019-01-11T13:36:54.480Z,57.7
2019-01-11T13:37:38.250Z,57.7
2019-01-11T13:38:27.733Z,57.7
2019-01-11T13:39:18.384Z,57.7
2019-01-11T13:40:07.852Z,57.6
2019-01-11T13:40:58.187Z,57.6
2019-01-11T13:41:48.517Z,57.6
2019-01-11T13:42:38.573Z,57.6
2019-01-11T13:43:28.167Z,57.6
2019-01-11T13:44:17.924Z,57.6
2019-01-11T13:45:08.300Z,57.6
2019-01-11T13:45:58.517Z,57.6
2019-01-11T13:46:48.609Z,57.6
2019-01-11T13:47:38.172Z,57.6
2019-01-11T13:48:27.932Z,57.6
2019-01-11T13:49:18.012Z,57.6
2019-01-11T13:50:08.332Z,57.6
2019-01-11T13:51:00.322Z,57.5
2019-01-11T13:51:48.166Z,57.5
2019-01-11T13:52:38.771Z,57.5
2019-01-11T13:53:28.813Z,57.5
2019-01-11T13:54:18.619Z,57.5
2019-01-11T13:55:08.862Z,57.4
2019-01-11T13:55:58.451Z,57.4
2019-01-11T13:56:48.767Z,57.4
2019-01-11T13:57:39.291Z,57.4
2019-01-11T13:58:28.896Z,57.4
2019-01-11T13:59:18.676Z,57.4
2019-01-11T14:00:08.226Z,57.4
2019-01-11T14:16:51.005Z,57.2
2019-01-11T14:17:41.602Z,57.2
2019-01-11T14:18:31.650Z,57.2
2019-01-11T14:19:21.710Z,57.1
2019-01-11T14:20:11.514Z,57.1
2019-01-11T14:21:01.818Z,57.1
2019-01-11T14:21:51.980Z,57.1
2019-01-11T14:22:41.945Z,57.1
2019-01-11T14:23:30.656Z,57.1
2019-01-11T14:24:21.277Z,57.1
2019-01-11T14:25:11.825Z,57.1
2019-01-11T14:26:01.648Z,57.1
2019-01-11T14:26:51.947Z,57.1
2019-01-11T14:27:41.513Z,57.1
2019-01-11T14:28:31.845Z,57
2019-01-11T14:29:21.632Z,57.1
2019-01-11T14:30:11.685Z,57
2019-01-11T14:31:01.480Z,57
2019-01-11T14:31:51.524Z,57
2019-01-11T14:32:41.839Z,57
2019-01-11T14:33:32.659Z,57
2019-01-11T14:34:22.237Z,57
2019-01-11T14:35:12.209Z,56.9
2019-01-11T14:36:01.974Z,56.9
2019-01-11T14:36:52.136Z,56.9
2019-01-11T14:37:42.389Z,56.9
2019-01-11T14:38:32.478Z,56.9
2019-01-11T14:39:22.769Z,56.9
2019-01-11T14:40:12.079Z,56.9
2019-01-11T14:41:02.709Z,56.9
2019-01-11T14:41:52.759Z,56.9
2019-01-11T14:42:42.303Z,56.9
2019-01-11T14:43:32.781Z,56.9
2019-01-11T14:44:22.573Z,56.9
2019-01-11T14:45:12.618Z,56.9
2019-01-11T14:46:03.234Z,56.8
2019-01-11T14:46:53.273Z,56.8
2019-01-11T14:47:43.396Z,56.8
2019-01-11T14:48:32.848Z,56.8
2019-01-11T14:49:23.709Z,56.8
2019-01-11T14:50:13.257Z,56.8
2019-01-11T14:51:03.593Z,56.8
2019-01-11T14:51:53.626Z,56.8
2019-01-11T14:52:43.712Z,56.8
2019-01-11T14:53:33.188Z,56.8
2019-01-11T14:54:23.522Z,56.8
2019-01-11T14:55:13.293Z,56.7
2019-01-11T14:56:03.888Z,56.7
2019-01-11T14:56:53.750Z,56.7
2019-01-11T14:57:43.806Z,56.7
2019-01-11T14:58:33.875Z,56.7
2019-01-11T14:59:24.124Z,56.7
2019-01-11T15:00:13.693Z,56.7
2019-01-11T15:01:04.395Z,56.6
2019-01-11T15:01:54.648Z,56.6
2019-01-11T15:02:44.617Z,56.6
2019-01-11T15:03:34.450Z,56.6
2019-01-11T15:04:24.201Z,56.6
2019-01-11T15:05:13.737Z,56.6
2019-01-11T15:06:04.321Z,56.6
2019-01-11T15:06:54.376Z,56.6
2019-01-11T15:07:44.686Z,56.6
2019-01-11T15:08:34.478Z,56.6
2019-01-11T15:09:24.810Z,56.6
2019-01-11T15:10:14.572Z,56.6
2019-01-11T15:11:04.644Z,56.5
2019-01-11T15:11:54.705Z,56.5
2019-01-11T15:12:44.529Z,56.5
2019-01-11T15:13:34.777Z,56.5
2019-01-11T15:14:25.144Z,56.5
2019-01-11T15:15:14.908Z,56.4
2019-01-11T15:16:04.951Z,56.4
2019-01-11T15:16:55.297Z,56.4
2019-01-11T15:17:45.657Z,56.4
2019-01-11T15:18:34.871Z,56.4
2019-01-11T15:19:25.182Z,56.4
2019-01-11T15:20:15.262Z,56.4
2019-01-11T15:21:05.321Z,56.4
2019-01-11T15:21:55.654Z,56.4
2019-01-11T15:22:45.142Z,56.4
2019-01-11T15:23:35.798Z,56.4
2019-01-11T15:24:25.814Z,56.4
2019-01-11T15:25:15.586Z,56.4
2019-01-11T15:26:05.657Z,56.3
2019-01-11T15:26:55.988Z,56.3
2019-01-11T15:27:46.058Z,56.3
2019-01-11T15:28:36.149Z,56.3
2019-01-11T15:29:26.183Z,56.3
2019-01-11T15:30:16.183Z,56.3
2019-01-11T15:31:06.528Z,56.3
2019-01-11T15:31:56.587Z,56.3
2019-01-11T15:32:46.103Z,56.3
2019-01-11T15:33:35.876Z,56.3
2019-01-11T15:34:26.509Z,56.3
2019-01-11T15:35:15.988Z,56.3
2019-01-11T15:36:06.868Z,56.3
2019-01-11T15:36:56.634Z,56.2
2019-01-11T15:37:46.737Z,56.2
2019-01-11T15:38:36.783Z,56.2
2019-01-11T15:39:26.567Z,56.2
2019-01-11T15:40:16.603Z,56.1
2019-01-11T15:41:07.221Z,56.1
2019-01-11T15:41:56.997Z,56.1
2019-01-11T15:42:47.315Z,56.1
2019-01-11T15:43:37.114Z,56.1
2019-01-11T15:44:26.337Z,56.1
2019-01-11T15:45:16.375Z,56.1
2019-01-11T15:46:07.320Z,56.1
2019-01-11T15:46:57.584Z,56.1
2019-01-11T15:47:47.660Z,56.1
2019-01-11T15:48:37.155Z,56.1
2019-01-11T15:49:27.797Z,56.1
2019-01-11T15:50:17.808Z,56.1
2019-01-11T15:51:07.321Z,56
2019-01-11T15:51:57.642Z,56
2019-01-11T15:52:47.999Z,56
2019-01-11T15:53:38.224Z,56
2019-01-11T15:54:27.259Z,56
2019-01-11T15:55:17.926Z,56
2019-01-11T15:56:07.682Z,55.9
2019-01-11T15:56:58.024Z,55.9
2019-01-11T15:57:48.392Z,55.9
2019-01-11T15:58:37.827Z,55.9
2019-01-11T15:59:28.181Z,55.9
2019-01-11T16:00:18.476Z,55.9
2019-01-11T16:01:08.293Z,55.9
2019-01-11T16:01:58.324Z,55.9
2019-01-11T16:02:48.087Z,55.9
2019-01-11T16:03:37.886Z,55.9
2019-01-11T16:04:28.223Z,55.9
2019-01-11T16:05:18.266Z,55.9
2019-01-11T16:06:08.884Z,55.9
2019-01-11T16:06:58.652Z,55.9
2019-01-11T16:07:48.447Z,55.8
2019-01-11T16:08:38.544Z,55.8
2019-01-11T16:09:28.896Z,55.8
2019-01-11T16:10:18.331Z,55.8
2019-01-11T16:11:08.946Z,55.8
2019-01-11T16:11:58.476Z,55.8
2019-01-11T16:12:49.233Z,55.8
2019-01-11T16:13:38.836Z,55.8
2019-01-11T16:14:29.218Z,55.8
2019-01-11T16:15:18.675Z,55.8
2019-01-11T16:16:09.278Z,55.8
2019-01-11T16:16:59.342Z,55.7
2019-01-11T16:17:49.656Z,55.7
2019-01-11T16:18:39.445Z,55.7
2019-01-11T16:19:28.670Z,55.7
2019-01-11T16:20:19.310Z,55.7
2019-01-11T16:21:09.063Z,55.7
2019-01-11T16:21:59.397Z,55.7
2019-01-11T16:22:49.171Z,55.7
2019-01-11T16:23:39.219Z,55.6
2019-01-11T16:24:29.852Z,55.6
2019-01-11T16:25:20.167Z,55.6
2019-01-11T16:26:09.950Z,55.6
2019-01-11T16:27:00.287Z,55.6